createdAt,value
2023-03-22T00:02:02.802Z,12.60
2023-03-22T00:04:34.831Z,12.60
2023-03-22T00:07:06.850Z,12.50
2023-03-22T00:09:38.880Z,12.60
2023-03-22T00:12:11.053Z,12.70
2023-03-22T00:14:43.076Z,12.60
2023-03-22T00:17:15.189Z,12.60
2023-03-22T00:19:47.503Z,12.70
2023-03-22T00:22:19.498Z,12.70
2023-03-22T00:24:51.772Z,12.70
2023-03-22T00:27:23.888Z,12.60
2023-03-22T00:29:56.019Z,12.40
2023-03-22T00:32:28.181Z,12.40
2023-03-22T00:35:07.501Z,12.40
2023-03-22T00:37:39.458Z,12.40
2023-03-22T00:40:14.676Z,12.30
2023-03-22T00:42:47.569Z,12.30
2023-03-22T00:45:19.684Z,12.30
2023-03-22T00:47:51.849Z,12.30
2023-03-22T00:50:23.982Z,12.30
2023-03-22T00:52:56.052Z,12.30
2023-03-22T00:55:28.110Z,12.30
2023-03-22T00:58:00.165Z,12.40
2023-03-22T01:00:33.724Z,12.40
2023-03-22T01:03:05.953Z,12.40
2023-03-22T01:05:38.053Z,12.40
2023-03-22T01:08:10.801Z,12.40
2023-03-22T01:10:44.381Z,12.40
2023-03-22T01:13:17.970Z,12.40
2023-03-22T01:15:51.612Z,12.40
2023-03-22T01:18:24.010Z,12.30
2023-03-22T01:20:56.013Z,12.30
2023-03-22T01:23:28.496Z,12.20
2023-03-22T01:26:01.742Z,12.10
2023-03-22T01:28:34.118Z,12.10
2023-03-22T01:31:06.459Z,12.10
2023-03-22T01:33:38.483Z,12.10
2023-03-22T01:36:11.124Z,12.10
2023-03-22T01:38:44.887Z,12.10
2023-03-22T01:41:17.664Z,12.00
2023-03-22T01:44:09.451Z,12.10
2023-03-22T01:46:43.544Z,12.00
2023-03-22T01:49:29.400Z,12.10
2023-03-22T01:52:06.956Z,12.00
2023-03-22T01:55:09.477Z,12.10
2023-03-22T01:57:50.738Z,12.00
2023-03-22T02:00:30.671Z,12.00
2023-03-22T02:03:16.932Z,11.90
2023-03-22T02:05:52.754Z,11.90
2023-03-22T02:08:29.276Z,11.90
2023-03-22T02:11:07.885Z,11.90
2023-03-22T02:14:00.594Z,11.90
2023-03-22T02:17:27.677Z,12.00
2023-03-22T02:20:38.970Z,12.10
2023-03-22T02:23:27.571Z,12.20
2023-03-22T02:26:25.800Z,12.20
2023-03-22T02:29:09.180Z,12.20
2023-03-22T02:31:55.342Z,12.10
2023-03-22T02:34:57.668Z,12.00
2023-03-22T02:38:11.474Z,12.00
2023-03-22T02:41:09.618Z,11.90
2023-03-22T02:43:46.924Z,11.90
2023-03-22T02:46:45.288Z,12.00
2023-03-22T02:49:37.641Z,12.00
2023-03-22T02:52:28.231Z,12.00
2023-03-22T02:55:12.368Z,12.00
2023-03-22T02:57:58.103Z,12.00
2023-03-22T03:00:33.468Z,11.90
2023-03-22T03:03:11.561Z,11.90
2023-03-22T03:05:47.034Z,12.00
2023-03-22T03:08:20.436Z,12.00
2023-03-22T03:10:54.446Z,12.00
2023-03-22T03:13:26.581Z,11.90
2023-03-22T03:16:02.110Z,11.90
2023-03-22T03:19:06.769Z,12.00
2023-03-22T03:22:24.536Z,12.00
2023-03-22T03:25:24.229Z,12.10
2023-03-22T03:28:10.119Z,12.10
2023-03-22T03:30:51.482Z,12.20
2023-03-22T03:33:27.462Z,12.20
2023-03-22T03:36:12.543Z,12.20
2023-03-22T03:38:49.670Z,12.20
2023-03-22T03:41:26.316Z,12.10
2023-03-22T03:43:59.532Z,12.10
2023-03-22T03:46:31.700Z,12.00
2023-03-22T03:49:05.241Z,12.00
2023-03-22T03:51:47.413Z,12.00
2023-03-22T03:54:20.685Z,12.10
2023-03-22T03:56:53.897Z,12.00
2023-03-22T03:59:26.002Z,12.00
2023-03-22T04:01:59.159Z,12.10
2023-03-22T04:04:35.549Z,12.10
2023-03-22T04:07:08.796Z,12.10
2023-03-22T04:09:42.893Z,12.10
2023-03-22T04:12:28.124Z,12.00
2023-03-22T04:15:15.755Z,12.10
2023-03-22T04:17:51.318Z,12.10
2023-03-22T04:20:23.995Z,12.10
2023-03-22T04:22:58.075Z,12.20
2023-03-22T04:25:30.356Z,12.30
2023-03-22T04:28:13.711Z,12.40
2023-03-22T04:30:51.045Z,12.30
2023-03-22T04:33:47.026Z,12.30
2023-03-22T04:36:31.171Z,12.30
2023-03-22T04:39:41.928Z,12.30
2023-03-22T04:42:32.862Z,12.20
2023-03-22T04:45:15.573Z,12.10
2023-03-22T04:47:51.589Z,12.00
2023-03-22T04:50:23.725Z,12.00
2023-03-22T04:53:01.318Z,11.90
2023-03-22T04:55:34.414Z,11.80
2023-03-22T04:58:07.121Z,11.80
2023-03-22T05:00:39.285Z,11.70
2023-03-22T05:03:11.401Z,11.70
2023-03-22T05:05:56.715Z,11.70
2023-03-22T05:08:33.796Z,11.60
2023-03-22T05:11:10.908Z,11.70
2023-03-22T05:13:43.232Z,11.70
2023-03-22T05:16:15.489Z,11.60
2023-03-22T05:18:55.533Z,11.70
2023-03-22T05:21:28.453Z,11.60
2023-03-22T05:24:03.440Z,11.70
2023-03-22T05:26:38.069Z,11.70
2023-03-22T05:29:11.215Z,11.60
2023-03-22T05:32:09.845Z,11.60
2023-03-22T05:34:42.850Z,11.60
2023-03-22T05:37:36.828Z,11.60
2023-03-22T05:40:10.158Z,11.60
2023-03-22T05:42:46.594Z,11.70
2023-03-22T05:45:23.869Z,11.80
2023-03-22T05:48:08.032Z,11.90
2023-03-22T05:50:41.112Z,12.00
2023-03-22T05:53:14.727Z,12.00
2023-03-22T05:55:53.159Z,12.00
2023-03-22T05:58:28.974Z,12.00
2023-03-22T06:01:11.001Z,12.00
2023-03-22T06:03:52.390Z,12.00
2023-03-22T06:06:36.173Z,12.10
2023-03-22T06:09:17.981Z,12.20
2023-03-22T06:11:54.734Z,12.30
2023-03-22T06:14:28.772Z,12.30
2023-03-22T06:17:21.135Z,12.20
2023-03-22T06:19:54.935Z,12.10
2023-03-22T06:22:27.112Z,12.10
2023-03-22T06:24:59.186Z,12.20
2023-03-22T06:27:40.407Z,12.40
2023-03-22T06:30:13.356Z,12.60
2023-03-22T06:33:05.256Z,12.90
2023-03-22T06:35:40.698Z,13.20
2023-03-22T06:38:15.039Z,13.50
2023-03-22T06:40:48.327Z,14.10
2023-03-22T06:43:20.881Z,14.50
2023-03-22T06:45:57.387Z,14.70
2023-03-22T06:48:35.041Z,14.90
2023-03-22T06:51:13.222Z,15.10
2023-03-22T06:53:45.896Z,15.40
2023-03-22T06:56:18.328Z,15.70
2023-03-22T06:58:57.968Z,15.80
2023-03-22T07:01:30.397Z,16.10
2023-03-22T07:04:02.966Z,16.20
2023-03-22T07:06:34.969Z,16.20
2023-03-22T07:09:07.893Z,16.30
2023-03-22T07:11:42.152Z,16.50
2023-03-22T07:14:14.480Z,16.80
2023-03-22T07:16:57.649Z,17.10
2023-03-22T07:19:31.337Z,17.40
2023-03-22T07:22:05.920Z,17.80
2023-03-22T07:24:47.256Z,18.10
2023-03-22T07:27:27.176Z,18.30
2023-03-22T07:29:59.493Z,18.60
2023-03-22T07:32:31.850Z,19.10
2023-03-22T07:35:13.586Z,19.60
2023-03-22T07:37:45.866Z,20.00
2023-03-22T07:40:27.773Z,20.20
2023-03-22T07:43:00.872Z,20.30
2023-03-22T07:45:52.376Z,20.50
2023-03-22T07:48:44.759Z,20.60
2023-03-22T07:51:39.609Z,20.50
2023-03-22T07:54:17.751Z,20.60
2023-03-22T07:56:54.836Z,20.90
2023-03-22T07:59:27.139Z,21.00
2023-03-22T08:01:59.797Z,20.90
2023-03-22T08:04:40.803Z,20.60
2023-03-22T08:07:26.836Z,21.10
2023-03-22T08:09:59.352Z,21.60
2023-03-22T08:12:32.635Z,21.50
2023-03-22T08:15:13.719Z,20.80
2023-03-22T08:17:49.841Z,20.50
2023-03-22T08:20:30.340Z,20.50
2023-03-22T08:23:08.067Z,20.20
2023-03-22T08:26:10.710Z,20.20
2023-03-22T08:28:42.935Z,19.90
2023-03-22T08:31:17.182Z,20.10
2023-03-22T08:33:52.037Z,20.40
2023-03-22T08:36:24.112Z,20.30
2023-03-22T08:39:04.416Z,20.30
2023-03-22T08:41:45.980Z,19.80
2023-03-22T08:44:18.481Z,19.40
2023-03-22T08:46:50.801Z,19.70
2023-03-22T08:49:23.412Z,20.20
2023-03-22T08:52:03.387Z,19.50
2023-03-22T08:54:48.958Z,19.30
2023-03-22T08:57:39.362Z,19.70
2023-03-22T09:00:48.532Z,19.90
2023-03-22T09:03:37.908Z,19.80
2023-03-22T09:06:11.148Z,19.60
2023-03-22T09:08:45.145Z,19.40
2023-03-22T09:11:21.247Z,19.60
2023-03-22T09:13:53.367Z,19.80
2023-03-22T09:16:25.794Z,19.60
2023-03-22T09:18:58.249Z,19.80
2023-03-22T09:21:31.098Z,19.80
2023-03-22T09:24:25.634Z,19.80
2023-03-22T09:27:00.213Z,19.50
2023-03-22T09:29:32.772Z,19.30
2023-03-22T09:32:08.805Z,19.30
2023-03-22T09:34:43.602Z,19.40
2023-03-22T09:37:15.758Z,19.60
2023-03-22T09:39:57.558Z,19.70
2023-03-22T09:42:42.352Z,20.20
2023-03-22T09:45:25.215Z,20.10
2023-03-22T09:47:59.220Z,20.00
2023-03-22T09:50:33.745Z,20.10
2023-03-22T09:53:09.366Z,20.20
2023-03-22T09:55:56.228Z,20.10
2023-03-22T09:58:45.776Z,20.20
2023-03-22T10:01:24.130Z,20.20
2023-03-22T10:04:05.320Z,20.40
2023-03-22T10:06:37.377Z,21.00
2023-03-22T10:09:27.113Z,21.50
2023-03-22T10:12:10.492Z,22.20
2023-03-22T10:15:11.882Z,22.20
2023-03-22T10:17:49.790Z,22.50
2023-03-22T10:20:37.049Z,23.20
2023-03-22T10:23:16.717Z,23.30
2023-03-22T10:25:50.644Z,23.60
2023-03-22T10:28:27.325Z,23.70
2023-03-22T10:31:00.754Z,23.00
2023-03-22T10:33:52.519Z,23.10
2023-03-22T10:36:31.268Z,23.30
2023-03-22T10:39:28.601Z,23.00
2023-03-22T10:42:04.148Z,22.20
2023-03-22T10:44:52.513Z,22.30
2023-03-22T10:47:32.505Z,21.90
2023-03-22T10:50:10.205Z,21.30
2023-03-22T10:53:00.642Z,21.40
2023-03-22T10:55:32.976Z,21.60
2023-03-22T10:58:15.681Z,21.80
2023-03-22T11:00:56.962Z,21.70
2023-03-22T11:03:31.835Z,21.10
2023-03-22T11:06:15.960Z,21.20
2023-03-22T11:08:49.297Z,20.80
2023-03-22T11:11:24.441Z,20.50
2023-03-22T11:14:07.351Z,20.50
2023-03-22T11:16:53.029Z,20.50
2023-03-22T11:19:33.350Z,20.60
2023-03-22T11:22:30.511Z,20.80
2023-03-22T11:25:06.558Z,20.70
2023-03-22T11:27:51.105Z,20.80
2023-03-22T11:30:28.798Z,20.60
2023-03-22T11:33:22.106Z,20.60
2023-03-22T11:36:02.080Z,20.60
2023-03-22T11:38:39.802Z,20.90
2023-03-22T11:41:20.621Z,20.80
2023-03-22T11:43:56.671Z,20.90
2023-03-22T11:46:30.386Z,21.20
2023-03-22T11:49:07.777Z,21.00
2023-03-22T11:51:40.774Z,20.90
2023-03-22T11:54:32.017Z,21.10
2023-03-22T11:57:09.386Z,21.00
2023-03-22T11:59:53.430Z,21.10
2023-03-22T12:02:48.700Z,21.10
2023-03-22T12:05:37.205Z,21.00
2023-03-22T12:08:34.931Z,20.80
2023-03-22T12:11:14.737Z,21.00
2023-03-22T12:14:18.893Z,21.00
2023-03-22T12:16:56.571Z,21.20
2023-03-22T12:19:53.785Z,21.30
2023-03-22T12:22:43.222Z,21.30
2023-03-22T12:25:17.971Z,21.30
2023-03-22T12:28:08.754Z,20.80
2023-03-22T12:30:51.397Z,20.80
2023-03-22T12:33:35.347Z,20.80
2023-03-22T12:36:07.826Z,20.70
2023-03-22T12:38:51.125Z,20.60
2023-03-22T12:41:31.819Z,20.90
2023-03-22T12:44:33.932Z,21.00
2023-03-22T12:47:30.264Z,21.30
2023-03-22T12:50:34.713Z,21.60
2023-03-22T12:53:11.366Z,21.60
2023-03-22T12:55:46.242Z,21.20
2023-03-22T12:58:24.172Z,21.10
2023-03-22T13:01:07.187Z,21.00
2023-03-22T13:03:46.531Z,21.30
2023-03-22T13:06:45.041Z,21.60
2023-03-22T13:09:17.633Z,21.90
2023-03-22T13:12:18.538Z,22.10
2023-03-22T13:14:56.223Z,22.00
2023-03-22T13:17:28.301Z,22.00
2023-03-22T13:20:06.822Z,22.00
2023-03-22T13:22:38.989Z,21.60
2023-03-22T13:25:14.613Z,21.80
2023-03-22T13:27:54.590Z,22.00
2023-03-22T13:30:37.223Z,21.80
2023-03-22T13:33:14.101Z,21.80
2023-03-22T13:35:50.071Z,22.00
2023-03-22T13:38:29.584Z,22.00
2023-03-22T13:41:07.698Z,22.10
2023-03-22T13:43:39.796Z,22.00
2023-03-22T13:46:18.353Z,21.90
2023-03-22T13:48:52.804Z,21.60
2023-03-22T13:51:30.372Z,21.60
2023-03-22T13:54:11.570Z,21.40
2023-03-22T13:57:00.290Z,21.50
2023-03-22T14:00:11.181Z,21.60
2023-03-22T14:02:46.320Z,21.90
2023-03-22T14:05:22.479Z,22.10
2023-03-22T14:07:58.398Z,22.20
2023-03-22T14:10:42.340Z,22.10
2023-03-22T14:13:43.159Z,21.60
2023-03-22T14:16:33.274Z,21.30
2023-03-22T14:19:07.635Z,21.40
2023-03-22T14:21:43.978Z,21.50
